aviador You're here:

PAFS Decoded Metar

NIKOLAI in AK, USA
Report Time2017-10-21 15:01:00
UTC Time2017-10-21 15:53:57
Flight Rules vfr VFR
Wind040° at 06 kt
W.Decomp.*RWY 04: 5.7 kt HW 2 kt LCW
W.Rank040° ranks 2
Current wind is below 040° avg. (7.3)
Visibility9999 m
Phenomena:N/A
Clouds:N/A
Expected CloudBase > 800 ft AGL from Temp-Dew spread
CeilingNone
Temp-15°C (ISA -29)
Dew Point-17°C (85% RH)
AAT-20.6°C
QNH995 hPa
Density Alt-2,625 ft
Elevation413 ft
Report Wrong Elevation
Raw Report
PAFS 211501Z AUTO 04006KT 10SM CLR M15/M17 A2937=

Extra information for PAFS:More info

Metar Taf Metar & Taf Last 4 Metars F.Rules Stats Wind Profile Meteogram Temp Stats Airport Information Weather charts Add Link Nearby VenuesMetar ALERT Operation Metar Decoded Social comments

AIRNAV info for PAFS